Flight Track Log - Related Links

Times and Time Zones

All times are in EDT time to prevent confusion due to time zone crossing. See the N401PS flight status page for this flight to view local times or setup timezone preferences in your user account.

Time Position Orientation Groundspeed Altitude Reporting Facility
EDT Latitude Longitude Course Direction KTS MPH feet Rate Location/Type
Mon 01:47:02 PM 29.6136 -95.1450 79° East 122 140 300  Level Houston Center
Mon 01:47:56 PM 29.6192 -95.1133 79° East 132 152 1,200 443 Climbing Houston Center
Mon 01:49:04 PM 29.6250 -95.0644 82° East 153 176 1,200 134 Level Houston Center
Mon 01:50:10 PM 29.6367 -95.0172 74° East 149 171 1,500 310 Climbing Houston Center
Mon 01:51:00 PM 29.6442 -94.9778 78° East 145 167 1,800 589 Climbing Houston Center
Mon 01:52:02 PM 29.6503 -94.9314 81° East 141 162 2,600 780 Climbing Houston Center
Mon 01:53:03 PM 29.6583 -94.8847 79° East 144 166 3,400 797 Climbing Houston Center
Mon 01:54:10 PM 29.6686 -94.8378 76° East 145 167 4,300 745 Climbing Houston Center
Mon 01:55:20 PM 29.6789 -94.7842 78° East 145 167 5,100 776 Climbing Houston Center
Mon 01:56:06 PM 29.6850 -94.7467 79° East 147 169 5,800 762 Climbing Houston Center
Mon 01:56:23 PM 29.6872 -94.7394 70° East 143 165 5,900 590 Climbing Houston Center
Mon 01:57:07 PM 29.6933 -94.7022 79° East 138 159 6,400 484 Climbing Houston Center
Mon 01:57:25 PM 29.6956 -94.6967 65° Northeast 140 161 6,400 492 Level Houston Center
Mon 01:58:08 PM 29.7017 -94.6578 80° East 142 163 6,900 484 Climbing Houston Center
Mon 01:58:27 PM 29.7036 -94.6522 68° East 143 165 6,900 484 Level Houston Center
Mon 01:59:10 PM 29.7100 -94.6136 79° East 143 165 7,400 590 Climbing Houston Center
Mon 01:59:28 PM 29.7142 -94.5972 74° East 147 169 7,500 90 Climbing Houston Center
Mon 02:00:17 PM 29.7214 -94.5592 78° East 159 183 7,500  Level Houston Center
Mon 02:01:18 PM 29.7306 -94.5025 79° East 173 199 7,500  Level Houston Center
Mon 02:02:20 PM 29.7422 -94.4506 75° East 174 200 7,500  Level Houston Center
Mon 02:03:15 PM 29.7519 -94.3986 78° East 175 201 7,500  Level Houston Center
Mon 02:03:36 PM 29.7536 -94.3856 82° East 176 203 7,500  Level Houston Center
Mon 02:04:16 PM 29.7611 -94.3419 79° East 175 201 7,500  Level Houston Center
Mon 02:04:38 PM 29.7644 -94.3303 72° East 176 203 7,500  Level Houston Center
Mon 02:05:17 PM 29.7725 -94.2875 78° East 175 201 7,500  Level Houston Center
Mon 02:05:40 PM 29.7753 -94.2650 82° East 175 201 7,500  Level Houston Center
Mon 02:06:19 PM 29.7836 -94.2306 74° East 176 203 7,500  Level Houston Center
Mon 02:06:41 PM 29.7869 -94.2097 80° East 178 205 7,500  Level Houston Center
Mon 02:07:20 PM 29.7922 -94.1717 81° East 179 206 7,500  Level Houston Center
Mon 02:07:43 PM 29.7967 -94.1522 75° East 178 205 7,500  Level Houston Center
Mon 02:08:21 PM 29.8036 -94.1172 77° East 178 205 7,500  Level Houston Center
Mon 02:08:45 PM 29.8067 -94.0967 80° East 178 205 7,500  Level Houston Center
Mon 02:09:28 PM 29.8142 -94.0556 78° East 179 206 7,500  Level Houston Center
Mon 02:09:47 PM 29.8169 -94.0411 77° East 179 206 7,500  Level Houston Center
Mon 02:10:49 PM 29.8269 -93.9842 79° East 182 209 7,500  Level Houston Center
Mon 02:11:50 PM 29.8378 -93.9294 77° East 178 205 7,500  Level Houston Center
Mon 02:12:52 PM 29.8494 -93.8642 78° East 175 201 7,500  Level Houston Center
Mon 02:13:54 PM 29.8603 -93.8083 77° East 178 205 7,500  Level Houston Center
Mon 02:14:56 PM 29.8697 -93.7528 79° East 178 205 7,500  Level Houston Center
Mon 02:15:58 PM 29.8797 -93.6975 78° East 179 206 7,500  Level Houston Center
Mon 02:17:00 PM 29.8900 -93.6419 78° East 178 205 7,500  Level Houston Center
Mon 02:18:02 PM 29.8997 -93.5850 79° East 181 208 7,500  Level Houston Center
Mon 02:19:04 PM 29.9117 -93.5183 78° East 179 206 7,500  Level Houston Center
Mon 02:20:06 PM 29.9219 -93.4617 78° East 180 207 7,500  Level Houston Center
Mon 02:21:08 PM 29.9319 -93.4056 78° East 180 207 7,500  Level Houston Center
Mon 02:22:10 PM 29.9422 -93.3478 78° East 183 211 7,500  Level Houston Center
Mon 02:23:12 PM 29.9525 -93.2914 78° East 182 209 7,500  Level Houston Center
Mon 02:24:13 PM 29.9611 -93.2325 80° East 184 212 7,500  Level Houston Center
Mon 02:25:15 PM 29.9736 -93.1650 78° East 180 207 7,500  Level Houston Center
Mon 02:26:17 PM 29.9842 -93.1092 78° East 178 205 7,500  Level Houston Center
Mon 02:27:19 PM 29.9939 -93.0531 79° East 179 206 7,500  Level Houston Center
Mon 02:28:21 PM 30.0061 -92.9967 76° East 180 207 7,500  Level Houston Center
Mon 02:29:23 PM 30.0203 -92.9411 74° East 181 208 7,500  Level Houston Center
Mon 02:30:25 PM 30.0353 -92.8856 73° East 181 208 7,500  Level Houston Center
Mon 02:31:27 PM 30.0544 -92.8178 72° East 185 213 7,500  Level Houston Center
Mon 02:32:29 PM 30.0697 -92.7600 73° East 188 216 7,500  Level Houston Center
Mon 02:33:31 PM 30.0856 -92.7036 72° East 186 214 7,500  Level Houston Center
Mon 02:34:33 PM 30.0958 -92.6439 79° East 188 216 7,500  Level Houston Center
Mon 02:35:35 PM 30.1033 -92.5842 82° East 190 219 7,500  Level Houston Center
Mon 02:36:37 PM 30.1128 -92.5272 79° East 184 212 7,500  Level Houston Center
Mon 02:37:39 PM 30.1247 -92.4572 79° East 185 213 7,500  Level Houston Center
Mon 02:38:41 PM 30.1339 -92.3992 80° East 184 212 7,500  Level Houston Center
Mon 02:39:43 PM 30.1439 -92.3406 79° East 185 213 7,500  Level Houston Center
Mon 02:40:44 PM 30.1525 -92.2819 80° East 186 214 7,500  Level Houston Center
Mon 02:41:46 PM 30.1625 -92.2236 79° East 185 213 7,500  Level Houston Center
Mon 02:42:48 PM 30.1728 -92.1656 78° East 185 213 7,500  Level Houston Center
Mon 02:43:50 PM 30.1839 -92.0967 79° East 184 212 7,500  Level Houston Center
Mon 02:44:52 PM 30.1928 -92.0383 80° East 183 211 7,500  Level Houston Center
Mon 02:45:54 PM 30.2017 -91.9806 80° East 184 212 7,500  Level Houston Center
Mon 02:46:56 PM 30.2122 -91.9156 79° East 186 214 7,500  Level Houston Center
Mon 02:47:57 PM 30.2219 -91.8572 79° East 185 213 7,500  Level Houston Center
Mon 02:48:59 PM 30.2317 -91.8000 79° East 183 211 7,500  Level Houston Center
Mon 02:50:01 PM 30.2406 -91.7431 80° East 183 211 7,500 97 Level Houston Center
Mon 02:51:03 PM 30.2469 -91.6858 83° East 177 204 7,700 145 Climbing Houston Center
Mon 02:52:05 PM 30.2508 -91.6289 85° East 177 204 7,800 145 Climbing Houston Center
Mon 02:53:07 PM 30.2606 -91.5742 78° East 174 200 8,000 242 Climbing Houston Center
Mon 02:54:09 PM 30.2703 -91.5106 80° East 169 194 8,300 242 Climbing Houston Center
Mon 02:55:11 PM 30.2878 -91.4594 68° East 172 198 8,500 194 Climbing Houston Center
Mon 02:56:13 PM 30.2828 -91.4022 96° East 177 204 8,700 194 Climbing Houston Center
Mon 02:57:15 PM 30.2861 -91.3469 86° East 173 199 8,900 194 Climbing Houston Center
Mon 02:58:17 PM 30.2892 -91.2903 86° East 178 205 9,100 194 Climbing Houston Center
Mon 02:59:19 PM 30.2914 -91.2336 87° East 177 204 9,300 189 Climbing Houston Center
Mon 03:00:24 PM 30.2950 -91.1631 87° East 178 205 9,500 97 Climbing Houston Center
Mon 03:01:23 PM 30.2972 -91.1064 87° East 183 211 9,500  Level Houston Center
Mon 03:02:26 PM 30.2981 -91.0483 89° East 182 209 9,500  Level Houston Center
Mon 03:03:27 PM 30.3003 -90.9886 88° East 184 212 9,500  Level Houston Center
Mon 03:04:21 PM 30.3019 -90.9319 88° East 186 214 9,500 52 Level Houston Center
Mon 03:05:22 PM 30.3214 -90.8708 70° East 187 215 9,600 49 Climbing Houston Center
Mon 03:06:23 PM 30.3386 -90.8150 70° East 184 212 9,600  Level Houston Center
Mon 03:07:30 PM 30.3600 -90.7539 68° East 187 215 9,600 -47 Level Houston Center
Mon 03:08:31 PM 30.3817 -90.7003 65° Northeast 184 212 9,500  Descending Houston Center
Mon 03:09:31 PM 30.3883 -90.6397 83° East 185 213 9,600 50 Climbing Houston Center
Mon 03:10:32 PM 30.3764 -90.5825 104° East 185 213 9,600  Level Houston Center
Mon 03:11:33 PM 30.3603 -90.5275 109° East 182 209 9,600  Level Houston Center
Mon 03:12:34 PM 30.3419 -90.4706 110° East 182 209 9,600 -49 Level Houston Center
Mon 03:13:36 PM 30.3194 -90.4183 117° Southeast 182 209 9,500  Descending Houston Center
Mon 03:14:36 PM 30.3031 -90.3586 108° East 181 208 9,600  Climbing Houston Center
Mon 03:15:37 PM 30.2950 -90.3014 99° East 181 208 9,500 -158 Descending Houston Center
Mon 03:15:52 PM 30.2958 -90.2956 81° East 180 207 9,400 -98 Descending Houston Center
Mon 03:16:38 PM 30.2892 -90.2414 98° East 187 215 9,400  Level Houston Center
Mon 03:16:54 PM 30.2906 -90.2361 73° East 185 213 9,400 -98 Level Houston Center
Mon 03:17:39 PM 30.2831 -90.1814 99° East 189 217 9,300 -194 Descending Houston Center
Mon 03:17:56 PM 30.2828 -90.1642 91° East 187 215 9,200 -98 Descending Houston Center
Mon 03:18:40 PM 30.2792 -90.1214 96° East 191 220 9,200  Level Houston Center
Mon 03:18:58 PM 30.2783 -90.1031 93° East 190 219 9,200 -100 Level Houston Center
Mon 03:19:40 PM 30.2731 -90.0589 98° East 192 221 9,100 -97 Descending Houston Center
Mon 03:20:00 PM 30.2725 -90.0425 92° East 190 219 9,100 -98 Level Houston Center
Mon 03:20:41 PM 30.2669 -89.9992 98° East 191 220 9,000 -97 Descending Houston Center
Mon 03:21:02 PM 30.2647 -89.9822 99° East 191 220 9,000 -98 Level Houston Center
Mon 03:21:42 PM 30.2564 -89.9344 101° East 192 221 8,900 -97 Descending Houston Center
Mon 03:22:04 PM 30.2556 -89.9219 94° East 191 220 8,900 -98 Level Houston Center
Mon 03:22:43 PM 30.2481 -89.8722 100° East 196 226 8,800 -97 Descending Houston Center
Mon 03:23:06 PM 30.2469 -89.8600 96° East 195 224 8,800 -71 Level Houston Center
Mon 03:24:08 PM 30.2333 -89.7881 102° East 195 224 8,700 -97 Descending Houston Center
Mon 03:25:10 PM 30.2239 -89.7278 100° East 194 223 8,600 -98 Descending Houston Center
Mon 03:26:11 PM 30.2222 -89.6669 92° East 192 221 8,500 -98 Descending Houston Center
Mon 03:27:13 PM 30.2281 -89.6067 84° East 191 220 8,400 -97 Descending Houston Center
Mon 03:28:15 PM 30.2286 -89.5344 89° East 189 217 8,300 -97 Descending Houston Center
Mon 03:29:17 PM 30.2297 -89.4722 89° East 192 221 8,200 -97 Descending Houston Center
Mon 03:30:19 PM 30.2383 -89.4092 81° East 198 228 8,100 -97 Descending Houston Center
Mon 03:31:21 PM 30.2458 -89.3467 82° East 197 227 8,000 -97 Descending Houston Center
Mon 03:32:23 PM 30.2525 -89.2844 83° East 197 227 7,900 -96 Descending Houston Center
Mon 03:33:26 PM 30.2597 -89.2214 82° East 198 228 7,800 -96 Descending Houston Center
Mon 03:34:28 PM 30.2683 -89.1464 82° East 197 227 7,700 -97 Descending Houston Center
Mon 03:35:30 PM 30.2758 -89.0842 82° East 196 226 7,600 -97 Descending Houston Center
Mon 03:36:32 PM 30.2825 -89.0228 83° East 194 223 7,500 -48 Descending Houston Center
Mon 03:37:34 PM 30.2892 -88.9617 83° East 193 222 7,500  Level Houston Center
Mon 03:38:36 PM 30.2953 -88.8953 84° East 191 220 7,500  Level Houston Center
Mon 03:39:38 PM 30.3022 -88.8367 82° East 187 215 7,500  Level Houston Center
Mon 03:40:40 PM 30.3092 -88.7764 82° East 188 216 7,500  Level Houston Center
Mon 03:41:42 PM 30.3156 -88.7183 83° East 185 213 7,500  Level Houston Center
Mon 03:42:44 PM 30.3231 -88.6456 83° East 189 217 7,500  Level Houston Center
Mon 03:43:46 PM 30.3258 -88.5828 87° East 194 223 7,500  Level Houston Center
Mon 03:44:48 PM 30.3278 -88.5225 88° East 191 220 7,500  Level Houston Center
Mon 03:45:51 PM 30.3292 -88.4603 89° East 193 222 7,500  Level Houston Center
Mon 03:46:53 PM 30.3314 -88.3981 88° East 195 224 7,500  Level Houston Center
Mon 03:47:55 PM 30.3328 -88.3253 89° East 191 220 7,500  Level Houston Center
Mon 03:48:57 PM 30.3350 -88.2625 88° East 194 223 7,500  Level Houston Center
Mon 03:49:59 PM 30.3358 -88.2011 89° East 192 221 7,500  Level Houston Center
Mon 03:51:01 PM 30.3372 -88.1392 88° East 194 223 7,500  Level Houston Center
Mon 03:52:03 PM 30.3392 -88.0772 88° East 194 223 7,500  Level Houston Center
Mon 03:53:05 PM 30.3406 -88.0150 89° East 194 223 7,500  Level Houston Center
Mon 03:54:07 PM 30.3422 -87.9408 88° East 194 223 7,500  Level Houston Center
Mon 03:55:09 PM 30.3436 -87.8808 88° East 189 217 7,500  Level Houston Center
Mon 03:56:11 PM 30.3428 -87.8206 91° East 188 216 7,500  Level Houston Center
Mon 03:57:13 PM 30.3419 -87.7578 91° East 194 223 7,500  Level Houston Center
Mon 03:58:16 PM 30.3400 -87.6981 92° East 189 217 7,500  Level Houston Center
Mon 03:59:18 PM 30.3369 -87.6231 93° East 196 226 7,500  Level Houston Center
Mon 04:00:11 PM 30.3392 -87.5758 87° East 195 224 7,500  Level Jacksonville Center
Mon 04:01:12 PM 30.3436 -87.5111 85° East 193 222 7,500  Level Jacksonville Center
Mon 04:02:13 PM 30.3458 -87.4486 88° East 190 219 7,500  Level Jacksonville Center
Mon 04:03:14 PM 30.3500 -87.3864 86° East 193 222 7,500  Level Jacksonville Center
Mon 04:04:21 PM 30.3525 -87.3192 88° East 194 223 7,500  Level Jacksonville Center
Mon 04:05:22 PM 30.3567 -87.2567 86° East 194 223 7,500  Level Jacksonville Center
Mon 04:06:22 PM 30.3611 -87.1894 86° East 193 222 7,500  Level Jacksonville Center
Mon 04:07:23 PM 30.3631 -87.1294 88° East 194 223 7,500  Level Jacksonville Center
Mon 04:08:24 PM 30.3672 -87.0647 86° East 194 223 7,500  Level Jacksonville Center
Mon 04:09:25 PM 30.3714 -87.0022 86° East 192 221 7,500  Level Jacksonville Center
Mon 04:11:00 PM 30.3222 -86.9337 130° Southeast  Level FlightAware Approximate
Mon 04:18:00 PM 30.2101 -86.5544 99° East  Level FlightAware Approximate
Mon 04:19:00 PM 30.2021 -86.4989 99° East  Level FlightAware Approximate
Mon 04:20:00 PM 30.1941 -86.4435 99° East  Level FlightAware Approximate
Mon 04:21:00 PM 30.1861 -86.3880 100° East  Level FlightAware Approximate
Mon 04:22:00 PM 30.1780 -86.3326 100° East  Level FlightAware Approximate
Mon 04:23:00 PM 30.1699 -86.2772 100° East  Level FlightAware Approximate
Mon 04:24:00 PM 30.1618 -86.2218 100° East  Level FlightAware Approximate
Mon 04:25:00 PM 30.1537 -86.1664 100° East  Level FlightAware Approximate
Mon 04:26:00 PM 30.1455 -86.1110 100° East  Level FlightAware Approximate
Mon 04:27:00 PM 30.1373 -86.0556 100° East  Level FlightAware Approximate
Mon 04:28:00 PM 30.1291 -86.0002 100° East  Level FlightAware Approximate
Mon 04:29:00 PM 30.1209 -85.9448 100° East  Level FlightAware Approximate
Mon 04:30:00 PM 30.1148 -85.8891 94° East  Level FlightAware Approximate
Mon 04:31:00 PM 30.1110 -85.8331 94° East  Level FlightAware Approximate
Mon 04:32:00 PM 30.1072 -85.7771 94° East  Level FlightAware Approximate
Mon 04:33:00 PM 30.1034 -85.7211 94° East  Level FlightAware Approximate
Mon 04:34:00 PM 30.0996 -85.6652 95° East  Level FlightAware Approximate
Mon 04:35:00 PM 30.0957 -85.6092 95° East  Level FlightAware Approximate
Mon 04:36:00 PM 30.0918 -85.5532 95° East  Level FlightAware Approximate
Mon 04:37:00 PM 30.0879 -85.4972 95° East  Level FlightAware Approximate
Mon 04:38:00 PM 30.0840 -85.4412 95° East  Level FlightAware Approximate
Mon 04:39:00 PM 30.0800 -85.3853 95° East  Level FlightAware Approximate
Mon 04:40:00 PM 30.0760 -85.3293 95° East  Level FlightAware Approximate
Mon 04:41:00 PM 30.0720 -85.2733 95° East  Level FlightAware Approximate
Mon 04:42:00 PM 30.0679 -85.2174 95° East  Level FlightAware Approximate
Mon 04:43:00 PM 30.0639 -85.1614 95° East  Level FlightAware Approximate
Mon 04:44:00 PM 30.0598 -85.1055 95° East  Level FlightAware Approximate
Mon 04:45:00 PM 30.0557 -85.0495 95° East  Level FlightAware Approximate
Mon 04:46:00 PM 30.0516 -84.9936 95° East  Level FlightAware Approximate
Mon 04:47:00 PM 30.0474 -84.9377 95° East  Level FlightAware Approximate
Mon 04:48:00 PM 30.0432 -84.8817 95° East  Level FlightAware Approximate
Mon 04:49:00 PM 30.0390 -84.8258 95° East  Level FlightAware Approximate
Mon 04:50:00 PM 30.0348 -84.7699 95° East  Level FlightAware Approximate
Mon 04:51:00 PM 30.0306 -84.7140 95° East  Level FlightAware Approximate
Mon 04:52:00 PM 30.0263 -84.6581 95° East  Level FlightAware Approximate
Mon 04:53:00 PM 30.0220 -84.6022 95° East  Level FlightAware Approximate
Mon 04:54:00 PM 30.0177 -84.5463 95° East  Level FlightAware Approximate
Mon 04:55:00 PM 30.0141 -84.4903 94° East  Level FlightAware Approximate
Mon 04:56:00 PM 30.0107 -84.4343 94° East  Level FlightAware Approximate
Mon 04:56:22 PM 29.9311 -84.2756 94° East 190 219 7,500  Level Jacksonville Center
Mon 04:57:00 PM 30.0074 -84.3784 94° East  Level FlightAware Approximate
Mon 04:57:22 PM 29.9278 -84.2156 94° East 190 219 7,500  Level Jacksonville Center
Mon 04:58:00 PM 30.0040 -84.3224 94° East  Level FlightAware Approximate
Mon 04:58:22 PM 29.9261 -84.1603 92° East 190 219 7,500  Level Jacksonville Center
Mon 04:59:00 PM 30.0005 -84.2664 94° East  Level FlightAware Approximate
Mon 04:59:22 PM 29.9267 -84.0981 89° East 190 219 7,400  Level Jacksonville Center
Mon 05:00:00 PM 29.9971 -84.2104 94° East  Level FlightAware Approximate
Mon 05:00:22 PM 29.9231 -84.0406 94° East 190 219 7,400  Level Jacksonville Center
Mon 05:01:00 PM 29.9936 -84.1545 94° East  Level FlightAware Approximate
Mon 05:01:22 PM 29.9217 -83.9806 92° East 190 219 7,400  Level Jacksonville Center
Mon 05:02:22 PM 29.9178 -83.9206 94° East 190 219 7,400 50 Level Jacksonville Center
Mon 05:03:22 PM 29.9183 -83.8608 89° East 185 213 7,500  Climbing Jacksonville Center
Mon 05:04:22 PM 29.9147 -83.8031 94° East 185 213 7,400 -50 Descending Jacksonville Center
Mon 05:05:22 PM 29.9131 -83.7433 92° East 185 213 7,400  Level Jacksonville Center
Mon 05:06:22 PM 29.9111 -83.6858 92° East 180 207 7,400  Level Jacksonville Center
Mon 05:07:22 PM 29.9094 -83.6258 92° East 180 207 7,400 -50 Level Jacksonville Center
Mon 05:08:22 PM 29.9078 -83.5658 92° East 180 207 7,300 -100 Descending Jacksonville Center
Mon 05:09:22 PM 29.9039 -83.5036 94° East 180 207 7,200 -150 Descending Jacksonville Center
Mon 05:10:22 PM 29.9019 -83.4436 94° East 180 207 7,000 -200 Descending Jacksonville Center
Mon 05:11:00 PM 29.8983 -83.4097 94° East  Level FlightAware Approximate
Mon 05:11:22 PM 29.9003 -83.3814 92° East 185 213 6,800  Level Jacksonville Center
Mon 05:12:22 PM 29.8983 -83.3214 92° East 185 213 6,600 -250 Descending Jacksonville Center
Mon 05:13:22 PM 29.8964 -83.2592 92° East 185 213 6,300 -300 Descending Jacksonville Center
Mon 05:14:22 PM 29.8944 -83.1969 92° East 185 213 6,000 -300 Descending Jacksonville Center
Mon 05:15:22 PM 29.8925 -83.1322 92° East 190 219 5,700 -267 Descending Jacksonville Center
Mon 05:15:52 PM 29.8883 -83.1011 99° East 199 229 5,600 -200 Descending Jacksonville Center
Mon 05:16:22 PM 29.8886 -83.0697 89° East 190 219 5,500 -308 Descending Jacksonville Center
Mon 05:17:10 PM 29.8844 -83.0125 95° East 197 227 5,200 -495 Descending Jacksonville Center
Mon 05:18:11 PM 29.8908 -82.9525 83° East 197 227 4,600 -590 Descending Jacksonville Center
Mon 05:19:12 PM 29.8908 -82.8878 90° East 195 224 4,000 -595 Descending Jacksonville Center
Mon 05:20:12 PM 29.8844 -82.8278 97° East 197 227 3,400 -522 Descending Jacksonville Center
Mon 05:21:07 PM 29.8822 -82.7728 93° East 194 223 3,000 -343 Descending Jacksonville Center
Mon 05:21:22 PM 29.8822 -82.7536 90° East 197 227 3,000 -200 Level Jacksonville Center
Mon 05:22:07 PM 29.8803 -82.7081 93° East 182 209 2,800 -200 Descending Jacksonville Center
Mon 05:22:22 PM 29.8781 -82.6961 102° East 183 211 2,800 -197 Level Jacksonville Center
Mon 05:23:08 PM 29.8739 -82.6531 96° East 181 208 2,600 -200 Descending Jacksonville Center
Mon 05:24:22 PM 29.8736 -82.5764 90° East 178 205 2,400 -198 Descending Jacksonville Center
Mon 05:25:09 PM 29.8694 -82.5333 96° East 184 212 2,200 -235 Descending Jacksonville Center
Mon 05:26:04 PM 29.8669 -82.4783 93° East 184 212 2,000 -197 Descending Jacksonville Center
Mon 05:27:11 PM 29.8628 -82.4158 94° East 187 215 1,800 -189 Descending Jacksonville Center
Mon 05:28:11 PM 29.8603 -82.3536 93° East 186 214 1,600 -198 Descending Jacksonville Center
Mon 05:29:12 PM 29.8581 -82.2914 92° East 185 213 1,400 -197 Descending Jacksonville Center

Login

Don't have an account? Register now (free) for customized features, flight alerts, and more!